sensor_id;sensor_type;location;lat;lon;timestamp;P1;durP1;ratioP1;P2;durP2;ratioP2
63906;SDS011;50075;49.484;11.238;2022-08-19T00:01:42;49.00;;;23.10;;
63906;SDS011;50075;49.484;11.238;2022-08-19T00:04:10;56.13;;;25.98;;
63906;SDS011;50075;49.484;11.238;2022-08-19T00:06:38;51.15;;;22.38;;
63906;SDS011;50075;49.484;11.238;2022-08-19T00:09:06;48.65;;;21.13;;
63906;SDS011;50075;49.484;11.238;2022-08-19T00:11:33;41.55;;;19.90;;
63906;SDS011;50075;49.484;11.238;2022-08-19T00:14:01;38.55;;;20.30;;
63906;SDS011;50075;49.484;11.238;2022-08-19T00:16:26;47.55;;;22.90;;
63906;SDS011;50075;49.484;11.238;2022-08-19T00:18:53;50.50;;;24.25;;
63906;SDS011;50075;49.484;11.238;2022-08-19T00:21:20;56.17;;;24.30;;
63906;SDS011;50075;49.484;11.238;2022-08-19T00:23:46;52.50;;;23.58;;
63906;SDS011;50075;49.484;11.238;2022-08-19T00:26:11;54.75;;;25.33;;
63906;SDS011;50075;49.484;11.238;2022-08-19T00:28:37;47.03;;;21.23;;
63906;SDS011;50075;49.484;11.238;2022-08-19T00:31:03;49.97;;;20.95;;
63906;SDS011;50075;49.484;11.238;2022-08-19T00:33:30;54.78;;;20.88;;
63906;SDS011;50075;49.484;11.238;2022-08-19T00:36:00;36.45;;;21.05;;
63906;SDS011;50075;49.484;11.238;2022-08-19T00:38:26;49.30;;;20.70;;
63906;SDS011;50075;49.484;11.238;2022-08-19T00:40:52;52.72;;;23.58;;
63906;SDS011;50075;49.484;11.238;2022-08-19T00:43:18;45.25;;;21.13;;
63906;SDS011;50075;49.484;11.238;2022-08-19T00:45:46;42.58;;;21.15;;
63906;SDS011;50075;49.484;11.238;2022-08-19T00:48:12;50.40;;;21.20;;
63906;SDS011;50075;49.484;11.238;2022-08-19T00:50:39;58.28;;;25.25;;
63906;SDS011;50075;49.484;11.238;2022-08-19T00:53:08;45.35;;;21.60;;
63906;SDS011;50075;49.484;11.238;2022-08-19T00:55:35;42.63;;;16.02;;
63906;SDS011;50075;49.484;11.238;2022-08-19T00:58:06;50.65;;;21.90;;
63906;SDS011;50075;49.484;11.238;2022-08-19T01:00:35;48.25;;;21.17;;
63906;SDS011;50075;49.484;11.238;2022-08-19T01:03:03;45.22;;;22.25;;
63906;SDS011;50075;49.484;11.238;2022-08-19T01:05:30;46.65;;;20.45;;
63906;SDS011;50075;49.484;11.238;2022-08-19T01:07:59;50.63;;;21.90;;
63906;SDS011;50075;49.484;11.238;2022-08-19T01:10:27;46.95;;;22.13;;
63906;SDS011;50075;49.484;11.238;2022-08-19T01:12:57;54.65;;;21.55;;
63906;SDS011;50075;49.484;11.238;2022-08-19T01:15:25;45.30;;;20.02;;
63906;SDS011;50075;49.484;11.238;2022-08-19T01:17:54;46.30;;;20.23;;
63906;SDS011;50075;49.484;11.238;2022-08-19T01:20:22;46.35;;;21.38;;
63906;SDS011;50075;49.484;11.238;2022-08-19T01:22:49;49.22;;;21.45;;
63906;SDS011;50075;49.484;11.238;2022-08-19T01:25:18;36.58;;;16.70;;
63906;SDS011;50075;49.484;11.238;2022-08-19T01:27:48;41.45;;;18.17;;
63906;SDS011;50075;49.484;11.238;2022-08-19T01:30:16;43.35;;;17.92;;
63906;SDS011;50075;49.484;11.238;2022-08-19T01:32:45;42.35;;;20.38;;
63906;SDS011;50075;49.484;11.238;2022-08-19T01:35:11;45.90;;;19.58;;
63906;SDS011;50075;49.484;11.238;2022-08-19T01:40:13;49.97;;;19.25;;
63906;SDS011;50075;49.484;11.238;2022-08-19T01:42:38;41.60;;;17.30;;
63906;SDS011;50075;49.484;11.238;2022-08-19T01:45:04;51.72;;;20.83;;
63906;SDS011;50075;49.484;11.238;2022-08-19T01:47:33;47.63;;;21.85;;
63906;SDS011;50075;49.484;11.238;2022-08-19T01:50:00;55.33;;;21.65;;
63906;SDS011;50075;49.484;11.238;2022-08-19T01:52:27;46.55;;;20.25;;
63906;SDS011;50075;49.484;11.238;2022-08-19T01:54:52;39.58;;;20.33;;
63906;SDS011;50075;49.484;11.238;2022-08-19T01:57:18;50.47;;;21.00;;
63906;SDS011;50075;49.484;11.238;2022-08-19T01:59:43;43.78;;;20.85;;
63906;SDS011;50075;49.484;11.238;2022-08-19T02:02:10;42.92;;;18.58;;
63906;SDS011;50075;49.484;11.238;2022-08-19T02:04:35;40.47;;;18.38;;
63906;SDS011;50075;49.484;11.238;2022-08-19T02:07:03;43.70;;;16.48;;
63906;SDS011;50075;49.484;11.238;2022-08-19T02:09:30;44.45;;;18.42;;
63906;SDS011;50075;49.484;11.238;2022-08-19T02:11:56;43.40;;;19.38;;
63906;SDS011;50075;49.484;11.238;2022-08-19T02:14:21;53.22;;;20.27;;
63906;SDS011;50075;49.484;11.238;2022-08-19T02:16:46;41.13;;;19.45;;
63906;SDS011;50075;49.484;11.238;2022-08-19T02:19:12;41.22;;;18.55;;
63906;SDS011;50075;49.484;11.238;2022-08-19T02:21:38;51.70;;;18.38;;
63906;SDS011;50075;49.484;11.238;2022-08-19T02:24:03;40.38;;;18.25;;
63906;SDS011;50075;49.484;11.238;2022-08-19T02:26:29;42.90;;;15.15;;
63906;SDS011;50075;49.484;11.238;2022-08-19T02:28:55;35.80;;;17.65;;
63906;SDS011;50075;49.484;11.238;2022-08-19T02:31:21;47.75;;;18.58;;
63906;SDS011;50075;49.484;11.238;2022-08-19T02:33:48;44.38;;;19.38;;
63906;SDS011;50075;49.484;11.238;2022-08-19T02:36:14;45.83;;;18.63;;
63906;SDS011;50075;49.484;11.238;2022-08-19T02:38:41;45.85;;;18.17;;
63906;SDS011;50075;49.484;11.238;2022-08-19T02:41:10;40.22;;;17.50;;
63906;SDS011;50075;49.484;11.238;2022-08-19T02:43:38;48.75;;;18.48;;
63906;SDS011;50075;49.484;11.238;2022-08-19T02:46:19;45.08;;;19.23;;
63906;SDS011;50075;49.484;11.238;2022-08-19T02:48:56;45.45;;;18.00;;
63906;SDS011;50075;49.484;11.238;2022-08-19T02:51:28;42.88;;;18.13;;
63906;SDS011;50075;49.484;11.238;2022-08-19T02:54:02;39.03;;;17.58;;
63906;SDS011;50075;49.484;11.238;2022-08-19T02:56:29;43.80;;;18.13;;
63906;SDS011;50075;49.484;11.238;2022-08-19T02:58:55;46.70;;;19.27;;
63906;SDS011;50075;49.484;11.238;2022-08-19T03:01:23;40.65;;;17.42;;
63906;SDS011;50075;49.484;11.238;2022-08-19T03:03:51;49.08;;;19.27;;
63906;SDS011;50075;49.484;11.238;2022-08-19T03:06:17;42.33;;;19.00;;
63906;SDS011;50075;49.484;11.238;2022-08-19T03:08:44;42.47;;;19.35;;
63906;SDS011;50075;49.484;11.238;2022-08-19T03:11:15;49.08;;;19.95;;
63906;SDS011;50075;49.484;11.238;2022-08-19T03:13:51;39.30;;;18.63;;
63906;SDS011;50075;49.484;11.238;2022-08-19T03:16:17;39.80;;;19.05;;
63906;SDS011;50075;49.484;11.238;2022-08-19T03:18:44;45.72;;;19.25;;
63906;SDS011;50075;49.484;11.238;2022-08-19T03:21:09;46.40;;;19.83;;
63906;SDS011;50075;49.484;11.238;2022-08-19T03:23:43;44.20;;;17.25;;
63906;SDS011;50075;49.484;11.238;2022-08-19T03:26:10;44.78;;;17.27;;
63906;SDS011;50075;49.484;11.238;2022-08-19T03:28:35;39.83;;;16.67;;
63906;SDS011;50075;49.484;11.238;2022-08-19T03:31:05;47.08;;;17.42;;
63906;SDS011;50075;49.484;11.238;2022-08-19T03:33:32;42.25;;;17.92;;
63906;SDS011;50075;49.484;11.238;2022-08-19T03:36:06;38.25;;;16.10;;
63906;SDS011;50075;49.484;11.238;2022-08-19T03:38:46;38.67;;;15.60;;
63906;SDS011;50075;49.484;11.238;2022-08-19T03:41:15;53.50;;;19.60;;
63906;SDS011;50075;49.484;11.238;2022-08-19T03:43:43;43.65;;;18.70;;
63906;SDS011;50075;49.484;11.238;2022-08-19T03:46:12;52.70;;;19.08;;
63906;SDS011;50075;49.484;11.238;2022-08-19T03:48:41;42.60;;;18.23;;
63906;SDS011;50075;49.484;11.238;2022-08-19T03:51:14;41.35;;;18.58;;
63906;SDS011;50075;49.484;11.238;2022-08-19T03:53:44;53.03;;;19.95;;
63906;SDS011;50075;49.484;11.238;2022-08-19T03:56:10;53.60;;;20.95;;
63906;SDS011;50075;49.484;11.238;2022-08-19T03:58:38;46.30;;;19.35;;
63906;SDS011;50075;49.484;11.238;2022-08-19T04:01:07;41.67;;;17.73;;
63906;SDS011;50075;49.484;11.238;2022-08-19T04:03:37;43.45;;;18.15;;
63906;SDS011;50075;49.484;11.238;2022-08-19T04:11:01;47.33;;;18.20;;
63906;SDS011;50075;49.484;11.238;2022-08-19T04:13:26;42.03;;;18.67;;
63906;SDS011;50075;49.484;11.238;2022-08-19T04:15:52;45.53;;;19.08;;
63906;SDS011;50075;49.484;11.238;2022-08-19T04:18:18;40.90;;;17.25;;
63906;SDS011;50075;49.484;11.238;2022-08-19T04:20:44;49.00;;;19.77;;
63906;SDS011;50075;49.484;11.238;2022-08-19T04:23:11;41.22;;;18.48;;
63906;SDS011;50075;49.484;11.238;2022-08-19T04:25:41;50.45;;;19.30;;
63906;SDS011;50075;49.484;11.238;2022-08-19T04:28:08;47.30;;;19.92;;
63906;SDS011;50075;49.484;11.238;2022-08-19T04:30:39;44.97;;;19.42;;
63906;SDS011;50075;49.484;11.238;2022-08-19T04:33:09;52.72;;;20.33;;
63906;SDS011;50075;49.484;11.238;2022-08-19T04:35:37;44.10;;;20.23;;
63906;SDS011;50075;49.484;11.238;2022-08-19T04:38:07;43.88;;;19.52;;
63906;SDS011;50075;49.484;11.238;2022-08-19T04:40:34;47.50;;;19.70;;
63906;SDS011;50075;49.484;11.238;2022-08-19T04:43:26;44.17;;;19.60;;
63906;SDS011;50075;49.484;11.238;2022-08-19T04:45:51;53.53;;;21.60;;
63906;SDS011;50075;49.484;11.238;2022-08-19T04:48:18;47.83;;;19.85;;
63906;SDS011;50075;49.484;11.238;2022-08-19T04:53:16;49.95;;;19.90;;
63906;SDS011;50075;49.484;11.238;2022-08-19T04:55:42;45.47;;;20.10;;
63906;SDS011;50075;49.484;11.238;2022-08-19T04:58:07;49.95;;;18.75;;
63906;SDS011;50075;49.484;11.238;2022-08-19T05:00:33;42.47;;;18.90;;
63906;SDS011;50075;49.484;11.238;2022-08-19T05:02:58;44.63;;;19.75;;
63906;SDS011;50075;49.484;11.238;2022-08-19T05:05:23;45.58;;;19.98;;
63906;SDS011;50075;49.484;11.238;2022-08-19T05:07:49;44.13;;;19.58;;
63906;SDS011;50075;49.484;11.238;2022-08-19T05:10:14;49.47;;;19.33;;
63906;SDS011;50075;49.484;11.238;2022-08-19T05:12:40;49.40;;;19.85;;
63906;SDS011;50075;49.484;11.238;2022-08-19T05:15:06;53.90;;;19.77;;
63906;SDS011;50075;49.484;11.238;2022-08-19T05:17:33;48.88;;;19.70;;
63906;SDS011;50075;49.484;11.238;2022-08-19T05:19:59;56.55;;;19.95;;
63906;SDS011;50075;49.484;11.238;2022-08-19T05:22:43;44.42;;;19.70;;
63906;SDS011;50075;49.484;11.238;2022-08-19T05:25:12;46.38;;;17.80;;
63906;SDS011;50075;49.484;11.238;2022-08-19T05:27:43;41.25;;;17.13;;
63906;SDS011;50075;49.484;11.238;2022-08-19T05:30:10;49.08;;;16.52;;
63906;SDS011;50075;49.484;11.238;2022-08-19T05:32:37;44.45;;;18.10;;
63906;SDS011;50075;49.484;11.238;2022-08-19T05:35:03;45.38;;;18.42;;
63906;SDS011;50075;49.484;11.238;2022-08-19T05:37:29;43.92;;;19.73;;
63906;SDS011;50075;49.484;11.238;2022-08-19T05:39:55;48.20;;;19.42;;
63906;SDS011;50075;49.484;11.238;2022-08-19T05:42:20;50.88;;;19.80;;
63906;SDS011;50075;49.484;11.238;2022-08-19T05:44:47;37.90;;;19.20;;
63906;SDS011;50075;49.484;11.238;2022-08-19T05:47:14;50.63;;;19.10;;
63906;SDS011;50075;49.484;11.238;2022-08-19T05:49:40;38.85;;;18.10;;
63906;SDS011;50075;49.484;11.238;2022-08-19T05:52:08;37.25;;;15.75;;
63906;SDS011;50075;49.484;11.238;2022-08-19T05:54:37;46.08;;;17.25;;
63906;SDS011;50075;49.484;11.238;2022-08-19T05:57:05;43.30;;;17.50;;
63906;SDS011;50075;49.484;11.238;2022-08-19T05:59:31;47.75;;;17.77;;
63906;SDS011;50075;49.484;11.238;2022-08-19T06:01:58;38.80;;;16.85;;
63906;SDS011;50075;49.484;11.238;2022-08-19T06:04:24;38.78;;;15.43;;
63906;SDS011;50075;49.484;11.238;2022-08-19T06:06:50;35.22;;;14.90;;
63906;SDS011;50075;49.484;11.238;2022-08-19T06:09:17;31.00;;;14.85;;
63906;SDS011;50075;49.484;11.238;2022-08-19T06:11:54;41.30;;;15.07;;
63906;SDS011;50075;49.484;11.238;2022-08-19T06:14:23;33.13;;;14.93;;
63906;SDS011;50075;49.484;11.238;2022-08-19T06:16:50;34.72;;;14.30;;
63906;SDS011;50075;49.484;11.238;2022-08-19T06:19:19;28.55;;;14.02;;
63906;SDS011;50075;49.484;11.238;2022-08-19T06:21:48;45.35;;;15.70;;
63906;SDS011;50075;49.484;11.238;2022-08-19T06:24:16;33.22;;;14.93;;
63906;SDS011;50075;49.484;11.238;2022-08-19T06:26:45;34.58;;;14.32;;
63906;SDS011;50075;49.484;11.238;2022-08-19T06:29:12;28.33;;;13.18;;
63906;SDS011;50075;49.484;11.238;2022-08-19T06:31:41;28.55;;;13.25;;
63906;SDS011;50075;49.484;11.238;2022-08-19T06:34:08;33.88;;;13.70;;
63906;SDS011;50075;49.484;11.238;2022-08-19T06:36:35;31.05;;;13.18;;
63906;SDS011;50075;49.484;11.238;2022-08-19T06:39:05;34.35;;;13.40;;
63906;SDS011;50075;49.484;11.238;2022-08-19T06:41:37;29.00;;;12.98;;
63906;SDS011;50075;49.484;11.238;2022-08-19T06:44:05;35.88;;;13.60;;
63906;SDS011;50075;49.484;11.238;2022-08-19T06:46:31;28.98;;;12.07;;
63906;SDS011;50075;49.484;11.238;2022-08-19T06:48:57;32.92;;;12.40;;
63906;SDS011;50075;49.484;11.238;2022-08-19T06:51:23;25.05;;;10.88;;
63906;SDS011;50075;49.484;11.238;2022-08-19T06:53:50;34.10;;;13.00;;
63906;SDS011;50075;49.484;11.238;2022-08-19T06:56:19;29.30;;;11.43;;
63906;SDS011;50075;49.484;11.238;2022-08-19T06:58:49;31.10;;;11.55;;
63906;SDS011;50075;49.484;11.238;2022-08-19T07:01:17;53.17;;;13.93;;
63906;SDS011;50075;49.484;11.238;2022-08-19T07:03:44;27.20;;;11.23;;
63906;SDS011;50075;49.484;11.238;2022-08-19T07:06:10;31.67;;;11.70;;
63906;SDS011;50075;49.484;11.238;2022-08-19T07:08:37;29.85;;;11.30;;
63906;SDS011;50075;49.484;11.238;2022-08-19T07:11:09;26.10;;;10.70;;
63906;SDS011;50075;49.484;11.238;2022-08-19T07:13:36;29.95;;;11.23;;
63906;SDS011;50075;49.484;11.238;2022-08-19T07:16:03;29.17;;;11.77;;
63906;SDS011;50075;49.484;11.238;2022-08-19T07:18:30;29.15;;;11.55;;
63906;SDS011;50075;49.484;11.238;2022-08-19T07:21:06;26.83;;;11.35;;
63906;SDS011;50075;49.484;11.238;2022-08-19T07:23:39;28.67;;;11.77;;
63906;SDS011;50075;49.484;11.238;2022-08-19T07:26:15;30.73;;;12.48;;
63906;SDS011;50075;49.484;11.238;2022-08-19T07:28:44;33.53;;;11.85;;
63906;SDS011;50075;49.484;11.238;2022-08-19T07:31:12;26.38;;;11.77;;
63906;SDS011;50075;49.484;11.238;2022-08-19T07:33:39;34.80;;;13.20;;
63906;SDS011;50075;49.484;11.238;2022-08-19T07:36:07;28.20;;;12.00;;
63906;SDS011;50075;49.484;11.238;2022-08-19T07:38:36;40.28;;;13.45;;
63906;SDS011;50075;49.484;11.238;2022-08-19T07:41:03;28.30;;;12.07;;
63906;SDS011;50075;49.484;11.238;2022-08-19T07:43:28;34.20;;;13.45;;
63906;SDS011;50075;49.484;11.238;2022-08-19T07:45:54;33.90;;;13.07;;
63906;SDS011;50075;49.484;11.238;2022-08-19T07:48:23;29.67;;;11.63;;
63906;SDS011;50075;49.484;11.238;2022-08-19T07:50:51;39.03;;;13.52;;
63906;SDS011;50075;49.484;11.238;2022-08-19T07:53:20;32.45;;;12.48;;
63906;SDS011;50075;49.484;11.238;2022-08-19T07:55:46;37.78;;;13.00;;
63906;SDS011;50075;49.484;11.238;2022-08-19T07:58:13;29.23;;;10.88;;
63906;SDS011;50075;49.484;11.238;2022-08-19T08:00:42;37.60;;;13.10;;
63906;SDS011;50075;49.484;11.238;2022-08-19T08:03:09;27.63;;;11.43;;
63906;SDS011;50075;49.484;11.238;2022-08-19T08:05:35;27.30;;;11.20;;
63906;SDS011;50075;49.484;11.238;2022-08-19T08:08:19;26.85;;;10.88;;
63906;SDS011;50075;49.484;11.238;2022-08-19T08:11:23;26.13;;;10.82;;
63906;SDS011;50075;49.484;11.238;2022-08-19T08:13:48;29.08;;;10.70;;
63906;SDS011;50075;49.484;11.238;2022-08-19T08:16:14;26.90;;;10.73;;
63906;SDS011;50075;49.484;11.238;2022-08-19T08:18:39;22.98;;;9.48;;
63906;SDS011;50075;49.484;11.238;2022-08-19T08:21:07;26.73;;;10.30;;
63906;SDS011;50075;49.484;11.238;2022-08-19T08:23:33;22.83;;;9.77;;
63906;SDS011;50075;49.484;11.238;2022-08-19T08:25:59;33.97;;;12.02;;
63906;SDS011;50075;49.484;11.238;2022-08-19T08:28:25;29.25;;;11.02;;
63906;SDS011;50075;49.484;11.238;2022-08-19T08:30:54;31.17;;;12.00;;
63906;SDS011;50075;49.484;11.238;2022-08-19T08:33:22;21.75;;;8.65;;
63906;SDS011;50075;49.484;11.238;2022-08-19T08:35:49;26.55;;;11.43;;
63906;SDS011;50075;49.484;11.238;2022-08-19T08:38:14;33.10;;;11.30;;
63906;SDS011;50075;49.484;11.238;2022-08-19T08:46:06;26.80;;;12.57;;
63906;SDS011;50075;49.484;11.238;2022-08-19T08:51:11;29.60;;;11.10;;
63906;SDS011;50075;49.484;11.238;2022-08-19T08:53:41;28.38;;;10.85;;
63906;SDS011;50075;49.484;11.238;2022-08-19T08:56:09;33.65;;;12.55;;
63906;SDS011;50075;49.484;11.238;2022-08-19T09:01:42;26.08;;;11.18;;
63906;SDS011;50075;49.484;11.238;2022-08-19T09:04:08;23.10;;;8.75;;
63906;SDS011;50075;49.484;11.238;2022-08-19T09:06:39;31.42;;;12.23;;
63906;SDS011;50075;49.484;11.238;2022-08-19T09:09:15;27.55;;;12.45;;
63906;SDS011;50075;49.484;11.238;2022-08-19T09:17:06;38.20;;;15.18;;
63906;SDS011;50075;49.484;11.238;2022-08-19T09:19:36;34.58;;;13.02;;
63906;SDS011;50075;49.484;11.238;2022-08-19T09:22:14;32.90;;;13.13;;
63906;SDS011;50075;49.484;11.238;2022-08-19T09:24:39;35.55;;;14.10;;
63906;SDS011;50075;49.484;11.238;2022-08-19T09:27:05;30.73;;;11.98;;
63906;SDS011;50075;49.484;11.238;2022-08-19T09:29:31;34.15;;;12.05;;
63906;SDS011;50075;49.484;11.238;2022-08-19T09:31:56;25.92;;;12.38;;
63906;SDS011;50075;49.484;11.238;2022-08-19T09:34:21;30.48;;;12.45;;
63906;SDS011;50075;49.484;11.238;2022-08-19T09:36:47;36.70;;;13.23;;
63906;SDS011;50075;49.484;11.238;2022-08-19T09:39:19;31.83;;;12.80;;
63906;SDS011;50075;49.484;11.238;2022-08-19T09:41:44;32.08;;;12.20;;
63906;SDS011;50075;49.484;11.238;2022-08-19T09:44:09;26.63;;;11.27;;
63906;SDS011;50075;49.484;11.238;2022-08-19T09:46:37;29.75;;;11.98;;
63906;SDS011;50075;49.484;11.238;2022-08-19T09:49:03;34.75;;;11.98;;
63906;SDS011;50075;49.484;11.238;2022-08-19T09:51:31;27.13;;;11.30;;
63906;SDS011;50075;49.484;11.238;2022-08-19T09:53:58;35.33;;;12.65;;
63906;SDS011;50075;49.484;11.238;2022-08-19T09:56:27;28.63;;;12.98;;
63906;SDS011;50075;49.484;11.238;2022-08-19T09:58:53;38.67;;;14.27;;
63906;SDS011;50075;49.484;11.238;2022-08-19T10:01:23;31.35;;;13.77;;
63906;SDS011;50075;49.484;11.238;2022-08-19T10:03:51;29.90;;;10.55;;
63906;SDS011;50075;49.484;11.238;2022-08-19T10:06:20;30.88;;;12.68;;
63906;SDS011;50075;49.484;11.238;2022-08-19T10:08:48;28.92;;;13.18;;
63906;SDS011;50075;49.484;11.238;2022-08-19T10:11:13;30.42;;;13.05;;
63906;SDS011;50075;49.484;11.238;2022-08-19T10:13:41;31.20;;;13.23;;
63906;SDS011;50075;49.484;11.238;2022-08-19T10:16:08;36.60;;;14.70;;
63906;SDS011;50075;49.484;11.238;2022-08-19T10:18:36;31.17;;;13.32;;
63906;SDS011;50075;49.484;11.238;2022-08-19T10:21:12;36.80;;;13.63;;
63906;SDS011;50075;49.484;11.238;2022-08-19T10:23:41;31.52;;;13.43;;
63906;SDS011;50075;49.484;11.238;2022-08-19T10:26:10;37.13;;;12.80;;
63906;SDS011;50075;49.484;11.238;2022-08-19T10:28:40;23.67;;;9.55;;
63906;SDS011;50075;49.484;11.238;2022-08-19T10:31:07;33.35;;;14.27;;
63906;SDS011;50075;49.484;11.238;2022-08-19T10:33:35;30.02;;;13.60;;
63906;SDS011;50075;49.484;11.238;2022-08-19T10:36:06;28.52;;;12.43;;
63906;SDS011;50075;49.484;11.238;2022-08-19T10:38:36;31.55;;;12.38;;
63906;SDS011;50075;49.484;11.238;2022-08-19T10:41:06;26.58;;;12.00;;
63906;SDS011;50075;49.484;11.238;2022-08-19T10:43:40;31.80;;;15.35;;
63906;SDS011;50075;49.484;11.238;2022-08-19T10:46:07;28.90;;;13.82;;
63906;SDS011;50075;49.484;11.238;2022-08-19T10:48:34;31.27;;;14.50;;
63906;SDS011;50075;49.484;11.238;2022-08-19T10:51:00;43.17;;;16.27;;
63906;SDS011;50075;49.484;11.238;2022-08-19T10:53:45;29.85;;;12.77;;
63906;SDS011;50075;49.484;11.238;2022-08-19T10:56:10;38.38;;;17.92;;
63906;SDS011;50075;49.484;11.238;2022-08-19T10:58:54;32.83;;;15.20;;
63906;SDS011;50075;49.484;11.238;2022-08-19T11:01:21;41.88;;;16.60;;
63906;SDS011;50075;49.484;11.238;2022-08-19T11:03:46;38.70;;;15.98;;
63906;SDS011;50075;49.484;11.238;2022-08-19T11:06:12;39.22;;;16.15;;
63906;SDS011;50075;49.484;11.238;2022-08-19T11:08:37;35.00;;;14.82;;
63906;SDS011;50075;49.484;11.238;2022-08-19T11:11:03;32.08;;;14.70;;
63906;SDS011;50075;49.484;11.238;2022-08-19T11:13:31;39.25;;;15.18;;
63906;SDS011;50075;49.484;11.238;2022-08-19T11:16:01;35.70;;;15.80;;
63906;SDS011;50075;49.484;11.238;2022-08-19T11:18:36;42.28;;;17.52;;
63906;SDS011;50075;49.484;11.238;2022-08-19T11:21:07;29.70;;;14.60;;
63906;SDS011;50075;49.484;11.238;2022-08-19T11:23:32;42.00;;;16.58;;
63906;SDS011;50075;49.484;11.238;2022-08-19T11:25:58;37.38;;;17.48;;
63906;SDS011;50075;49.484;11.238;2022-08-19T11:28:24;34.75;;;13.20;;
63906;SDS011;50075;49.484;11.238;2022-08-19T11:30:50;43.05;;;18.35;;
63906;SDS011;50075;49.484;11.238;2022-08-19T11:33:15;37.53;;;17.10;;
63906;SDS011;50075;49.484;11.238;2022-08-19T11:35:40;45.53;;;18.42;;
63906;SDS011;50075;49.484;11.238;2022-08-19T11:38:06;39.22;;;18.08;;
63906;SDS011;50075;49.484;11.238;2022-08-19T11:40:31;32.72;;;15.93;;
63906;SDS011;50075;49.484;11.238;2022-08-19T11:42:58;39.35;;;18.15;;
63906;SDS011;50075;49.484;11.238;2022-08-19T11:45:24;41.47;;;18.50;;
63906;SDS011;50075;49.484;11.238;2022-08-19T11:47:52;49.15;;;17.98;;
63906;SDS011;50075;49.484;11.238;2022-08-19T11:50:17;43.70;;;18.10;;
63906;SDS011;50075;49.484;11.238;2022-08-19T11:52:43;41.38;;;17.70;;
63906;SDS011;50075;49.484;11.238;2022-08-19T11:55:10;49.03;;;18.83;;
63906;SDS011;50075;49.484;11.238;2022-08-19T11:57:36;34.35;;;17.58;;
63906;SDS011;50075;49.484;11.238;2022-08-19T12:00:03;53.65;;;19.50;;
63906;SDS011;50075;49.484;11.238;2022-08-19T12:02:30;58.20;;;19.35;;
63906;SDS011;50075;49.484;11.238;2022-08-19T12:04:56;55.40;;;23.80;;
63906;SDS011;50075;49.484;11.238;2022-08-19T12:07:21;42.38;;;20.00;;
63906;SDS011;50075;49.484;11.238;2022-08-19T12:09:46;47.30;;;20.88;;
63906;SDS011;50075;49.484;11.238;2022-08-19T12:12:12;59.28;;;22.98;;
63906;SDS011;50075;49.484;11.238;2022-08-19T12:14:38;46.42;;;22.95;;
63906;SDS011;50075;49.484;11.238;2022-08-19T12:17:03;60.67;;;24.02;;
63906;SDS011;50075;49.484;11.238;2022-08-19T12:19:32;47.55;;;23.00;;
63906;SDS011;50075;49.484;11.238;2022-08-19T12:21:59;67.78;;;23.13;;
63906;SDS011;50075;49.484;11.238;2022-08-19T12:24:31;54.75;;;22.67;;
63906;SDS011;50075;49.484;11.238;2022-08-19T12:26:57;53.63;;;22.88;;
63906;SDS011;50075;49.484;11.238;2022-08-19T12:29:26;55.72;;;23.70;;
63906;SDS011;50075;49.484;11.238;2022-08-19T12:31:54;46.08;;;22.58;;
63906;SDS011;50075;49.484;11.238;2022-08-19T12:34:26;54.17;;;22.70;;
63906;SDS011;50075;49.484;11.238;2022-08-19T12:36:54;48.15;;;20.88;;
63906;SDS011;50075;49.484;11.238;2022-08-19T12:39:24;51.67;;;20.75;;
63906;SDS011;50075;49.484;11.238;2022-08-19T12:41:50;50.70;;;23.05;;
63906;SDS011;50075;49.484;11.238;2022-08-19T12:44:16;50.83;;;22.02;;
63906;SDS011;50075;49.484;11.238;2022-08-19T12:46:42;52.47;;;22.20;;
63906;SDS011;50075;49.484;11.238;2022-08-19T12:49:08;51.92;;;22.30;;
63906;SDS011;50075;49.484;11.238;2022-08-19T12:51:33;55.10;;;22.88;;
63906;SDS011;50075;49.484;11.238;2022-08-19T12:53:58;39.47;;;18.50;;
63906;SDS011;50075;49.484;11.238;2022-08-19T12:56:24;43.10;;;19.25;;
63906;SDS011;50075;49.484;11.238;2022-08-19T12:58:49;40.55;;;19.02;;
63906;SDS011;50075;49.484;11.238;2022-08-19T13:01:16;39.53;;;17.38;;
63906;SDS011;50075;49.484;11.238;2022-08-19T13:03:42;45.42;;;19.15;;
63906;SDS011;50075;49.484;11.238;2022-08-19T13:06:10;34.90;;;17.05;;
63906;SDS011;50075;49.484;11.238;2022-08-19T13:08:36;43.10;;;17.83;;
63906;SDS011;50075;49.484;11.238;2022-08-19T13:11:09;40.08;;;18.02;;
63906;SDS011;50075;49.484;11.238;2022-08-19T13:13:38;42.88;;;17.58;;
63906;SDS011;50075;49.484;11.238;2022-08-19T13:16:08;36.63;;;17.88;;
63906;SDS011;50075;49.484;11.238;2022-08-19T13:18:36;42.35;;;18.80;;
63906;SDS011;50075;49.484;11.238;2022-08-19T13:21:05;40.70;;;18.58;;
63906;SDS011;50075;49.484;11.238;2022-08-19T13:23:33;34.50;;;17.20;;
63906;SDS011;50075;49.484;11.238;2022-08-19T13:26:01;41.90;;;18.25;;
63906;SDS011;50075;49.484;11.238;2022-08-19T13:28:30;39.05;;;17.63;;
63906;SDS011;50075;49.484;11.238;2022-08-19T13:31:16;37.25;;;17.90;;
63906;SDS011;50075;49.484;11.238;2022-08-19T13:34:01;34.35;;;16.17;;
63906;SDS011;50075;49.484;11.238;2022-08-19T13:36:26;37.78;;;16.55;;
63906;SDS011;50075;49.484;11.238;2022-08-19T13:38:51;38.97;;;17.20;;
63906;SDS011;50075;49.484;11.238;2022-08-19T13:41:17;36.08;;;18.60;;
63906;SDS011;50075;49.484;11.238;2022-08-19T13:43:44;33.45;;;17.58;;
63906;SDS011;50075;49.484;11.238;2022-08-19T13:46:10;38.33;;;18.58;;
63906;SDS011;50075;49.484;11.238;2022-08-19T13:48:38;33.75;;;17.73;;
63906;SDS011;50075;49.484;11.238;2022-08-19T13:51:06;38.75;;;18.50;;
63906;SDS011;50075;49.484;11.238;2022-08-19T13:53:34;35.80;;;17.77;;
63906;SDS011;50075;49.484;11.238;2022-08-19T13:56:06;37.58;;;16.48;;
63906;SDS011;50075;49.484;11.238;2022-08-19T13:58:33;38.45;;;18.65;;
63906;SDS011;50075;49.484;11.238;2022-08-19T14:00:59;39.88;;;19.10;;
63906;SDS011;50075;49.484;11.238;2022-08-19T14:03:25;36.35;;;18.70;;
63906;SDS011;50075;49.484;11.238;2022-08-19T14:05:51;34.67;;;17.08;;
63906;SDS011;50075;49.484;11.238;2022-08-19T14:08:16;48.28;;;21.10;;
63906;SDS011;50075;49.484;11.238;2022-08-19T14:10:42;36.28;;;17.65;;
63906;SDS011;50075;49.484;11.238;2022-08-19T14:13:09;44.67;;;21.35;;
63906;SDS011;50075;49.484;11.238;2022-08-19T14:15:35;37.22;;;17.73;;
63906;SDS011;50075;49.484;11.238;2022-08-19T14:18:02;37.03;;;18.00;;
63906;SDS011;50075;49.484;11.238;2022-08-19T14:20:28;40.83;;;17.33;;
63906;SDS011;50075;49.484;11.238;2022-08-19T14:22:54;36.58;;;16.55;;
63906;SDS011;50075;49.484;11.238;2022-08-19T14:25:22;39.25;;;17.33;;
63906;SDS011;50075;49.484;11.238;2022-08-19T14:27:51;35.05;;;14.52;;
63906;SDS011;50075;49.484;11.238;2022-08-19T14:30:18;37.78;;;14.40;;
63906;SDS011;50075;49.484;11.238;2022-08-19T14:32:46;32.47;;;14.27;;
63906;SDS011;50075;49.484;11.238;2022-08-19T14:35:13;26.45;;;12.18;;
63906;SDS011;50075;49.484;11.238;2022-08-19T14:37:40;27.10;;;10.88;;
63906;SDS011;50075;49.484;11.238;2022-08-19T14:40:07;35.03;;;11.98;;